Time;durP1;ratioP1;P1;durP2;ratioP2;P2;SDS_P1;SDS_P2;PMS_P1;PMS_P2;Temp;Humidity;BMP_temperature;BMP_pressure;BME280_temperature;BME280_humidity;BME280_pressure;Samples;Min_cycle;Max_cycle;Signal;HPM_P1;HPM_P2
2022/09/23 00:00:39;;;;;;;5.23;3.80;;;12.10;99.00;;;;;;5029511;28;20920;-70
2022/09/23 00:03:05;;;;;;;5.57;4.40;;;12.10;99.00;;;;;;5046891;28;20458;-69
2022/09/23 00:05:31;;;;;;;5.03;3.60;;;12.10;99.10;;;;;;5028676;28;20466;-70
2022/09/23 00:07:58;;;;;;;3.87;3.47;;;12.00;99.10;;;;;;5047113;28;20680;-72
2022/09/23 00:10:26;;;;;;;5.37;3.37;;;12.00;99.10;;;;;;5065067;28;20450;-70
2022/09/23 00:12:52;;;;;;;3.63;3.27;;;11.90;99.20;;;;;;5037594;28;20465;-70
2022/09/23 00:15:17;;;;;;;4.87;2.90;;;11.90;99.20;;;;;;5047841;28;20445;-70
2022/09/23 00:17:44;;;;;;;4.27;3.70;;;11.80;99.10;;;;;;5052593;28;20464;-71
2022/09/23 00:20:10;;;;;;;5.60;2.53;;;11.80;99.30;;;;;;5062024;28;20216;-71
2022/09/23 00:22:37;;;;;;;2.20;2.10;;;11.80;99.40;;;;;;5049060;28;20519;-71
2022/09/23 00:25:04;;;;;;;4.07;3.37;;;11.80;99.30;;;;;;5050132;28;20295;-71
2022/09/23 00:27:29;;;;;;;4.20;3.47;;;11.80;99.30;;;;;;5052155;28;20466;-71
2022/09/23 00:29:55;;;;;;;3.67;3.10;;;11.80;99.30;;;;;;5037360;28;20522;-71
2022/09/23 00:32:21;;;;;;;4.00;2.97;;;11.80;99.40;;;;;;5043149;28;20307;-69
2022/09/23 00:34:47;;;;;;;2.80;2.60;;;11.60;99.30;;;;;;5035603;28;20563;-71
2022/09/23 00:37:13;;;;;;;3.17;2.87;;;11.60;99.50;;;;;;5048462;28;20247;-70
2022/09/23 00:39:39;;;;;;;3.10;2.90;;;11.70;99.60;;;;;;5031519;28;20428;-71
2022/09/23 00:42:08;;;;;;;2.93;2.70;;;11.70;99.60;;;;;;5047228;28;20714;-71
2022/09/23 00:44:54;;;;;;;3.03;2.80;;;11.60;99.50;;;;;;5045985;28;20238;-70
2022/09/23 00:47:42;;;;;;;2.83;2.57;;;11.60;99.50;;;;;;5050161;28;20482;-71
2022/09/23 00:50:23;;;;;;;2.83;2.50;;;11.60;99.50;;;;;;5040966;28;20440;-71
2022/09/23 00:52:51;;;;;;;4.87;2.70;;;11.60;99.60;;;;;;5061824;28;20485;-70
2022/09/23 00:55:24;;;;;;;2.90;2.70;;;11.50;99.50;;;;;;5033509;28;20446;-70
2022/09/23 00:57:53;;;;;;;3.10;2.80;;;11.50;99.60;;;;;;5043905;28;20529;-70
2022/09/23 01:00:19;;;;;;;2.80;2.57;;;11.50;99.70;;;;;;5044910;28;20459;-69
2022/09/23 01:02:45;;;;;;;3.00;2.70;;;11.30;99.60;;;;;;5047390;28;20508;-70
2022/09/23 01:05:11;;;;;;;3.00;2.70;;;11.40;99.80;;;;;;5047198;28;20435;-72
2022/09/23 01:07:37;;;;;;;2.70;2.50;;;11.30;99.80;;;;;;5041866;28;20273;-69
2022/09/23 01:10:04;;;;;;;4.40;3.03;;;11.40;99.80;;;;;;5048265;28;20265;-70
2022/09/23 01:12:43;;;;;;;12.90;3.10;;;11.40;99.80;;;;;;5044607;28;20353;-70
2022/09/23 01:15:18;;;;;;;6.33;3.00;;;11.40;99.80;;;;;;5047076;28;20505;-71
2022/09/23 01:18:02;;;;;;;3.27;2.97;;;11.30;99.80;;;;;;5030216;28;20512;-71
2022/09/23 01:20:27;;;;;;;4.20;3.80;;;11.10;99.90;;;;;;5050753;28;20816;-70
2022/09/23 01:23:31;;;;;;;3.50;3.20;;;11.10;99.90;;;;;;5064713;28;20447;-71
2022/09/23 01:26:09;;;;;;;2.73;2.53;;;11.10;99.90;;;;;;4995577;28;20614;-70
2022/09/23 01:28:40;;;;;;;6.20;5.37;;;11.10;99.90;;;;;;5051254;28;20453;-70
2022/09/23 01:31:41;;;;;;;6.03;5.43;;;11.20;99.90;;;;;;5046244;28;20841;-70
2022/09/23 01:34:35;;;;;;;4.53;3.70;;;11.20;99.90;;;;;;5026590;28;20546;-71
2022/09/23 01:37:10;;;;;;;4.90;3.67;;;11.10;99.90;;;;;;5036233;28;20501;-71
2022/09/23 01:39:42;;;;;;;3.97;3.57;;;11.10;99.90;;;;;;5043103;28;20446;-70
2022/09/23 01:42:33;;;;;;;3.60;3.30;;;11.10;99.90;;;;;;5044854;28;20476;-70
2022/09/23 01:45:22;;;;;;;3.20;2.63;;;11.10;99.90;;;;;;5043189;28;20516;-69
2022/09/23 01:47:57;;;;;;;4.43;3.13;;;11.00;99.90;;;;;;5064379;28;20508;-71
2022/09/23 01:53:42;;;;;;;5.47;3.43;;;11.00;99.90;;;;;;5046417;28;20438;-71
2022/09/23 01:56:14;;;;;;;4.00;3.43;;;10.90;99.90;;;;;;5048449;28;20458;-69
2022/09/23 01:58:53;;;;;;;4.17;3.07;;;10.90;99.90;;;;;;5046775;28;20521;-71
2022/09/23 02:01:30;;;;;;;3.60;3.20;;;10.90;99.90;;;;;;5046952;28;20452;-70
2022/09/23 02:04:07;;;;;;;3.70;3.40;;;10.90;99.90;;;;;;5047061;28;20825;-71
2022/09/23 02:06:38;;;;;;;3.40;3.10;;;10.90;99.90;;;;;;5044435;28;20564;-71
2022/09/23 02:09:09;;;;;;;5.07;3.80;;;10.80;99.90;;;;;;5041263;28;20998;-73
2022/09/23 02:11:37;;;;;;;3.30;2.90;;;10.80;99.90;;;;;;5048565;28;20450;-70
2022/09/23 02:14:15;;;;;;;3.50;3.20;;;10.70;99.90;;;;;;5041827;28;20518;-70
2022/09/23 02:17:08;;;;;;;3.40;3.10;;;10.80;99.90;;;;;;5047382;28;20515;-71
2022/09/23 02:19:46;;;;;;;3.57;3.23;;;10.80;99.90;;;;;;5038895;28;20969;-69
2022/09/23 02:22:23;;;;;;;5.20;3.30;;;10.80;99.90;;;;;;5043857;28;20953;-70
2022/09/23 02:24:49;;;;;;;3.70;3.40;;;10.80;99.90;;;;;;5047759;28;21032;-70
2022/09/23 02:27:56;;;;;;;3.30;3.00;;;10.70;99.90;;;;;;5038389;28;20539;-70
2022/09/23 02:30:30;;;;;;;4.30;3.50;;;10.70;99.90;;;;;;5007555;28;20236;-69
2022/09/23 02:33:06;;;;;;;5.57;3.20;;;10.70;99.90;;;;;;5009127;28;20455;-70
2022/09/23 02:35:50;;;;;;;4.60;3.40;;;10.70;99.90;;;;;;5006916;28;20451;-69
2022/09/23 02:38:32;;;;;;;3.83;3.47;;;10.70;99.90;;;;;;5031373;28;20454;-69
2022/09/23 02:41:14;;;;;;;4.27;3.60;;;10.70;99.90;;;;;;5047655;28;20459;-70
2022/09/23 02:44:11;;;;;;;4.37;3.63;;;10.70;99.90;;;;;;5047323;28;20465;-69
2022/09/23 02:46:37;;;;;;;3.33;2.90;;;10.60;99.90;;;;;;5031591;28;20466;-69
2022/09/23 02:49:10;;;;;;;5.10;4.40;;;10.60;99.90;;;;;;5038588;28;20482;-69
2022/09/23 02:51:37;;;;;;;3.97;2.87;;;10.60;99.90;;;;;;5038748;28;20563;-70
2022/09/23 02:54:06;;;;;;;4.17;3.67;;;10.60;99.90;;;;;;5039929;28;20829;-71
2022/09/23 02:56:33;;;;;;;4.97;3.60;;;10.60;99.90;;;;;;5045300;28;20451;-70
2022/09/23 02:58:59;;;;;;;3.43;3.13;;;10.60;99.90;;;;;;5034321;28;20451;-71
2022/09/23 03:02:03;;;;;;;4.37;3.43;;;10.50;99.90;;;;;;5041848;28;20541;-69
2022/09/23 03:04:55;;;;;;;5.83;3.90;;;10.50;99.90;;;;;;5038113;28;20455;-71
2022/09/23 03:07:46;;;;;;;5.40;4.13;;;10.40;99.90;;;;;;5037227;28;20626;-70
2022/09/23 03:10:19;;;;;;;5.20;4.20;;;10.30;99.90;;;;;;5042071;28;20529;-71
2022/09/23 03:13:21;;;;;;;4.23;3.83;;;10.30;99.90;;;;;;5041854;28;20498;-70
2022/09/23 03:16:01;;;;;;;4.23;3.33;;;10.30;99.90;;;;;;5045702;28;20980;-71
2022/09/23 03:18:51;;;;;;;3.83;3.53;;;10.20;99.90;;;;;;5036613;28;20463;-70
2022/09/23 03:21:40;;;;;;;4.93;4.43;;;10.20;99.90;;;;;;5036134;28;20463;-71
2022/09/23 03:24:09;;;;;;;4.70;3.57;;;10.10;99.90;;;;;;5016854;28;20507;-71
2022/09/23 03:26:38;;;;;;;3.37;3.07;;;10.10;99.90;;;;;;5040280;28;20501;-70
2022/09/23 03:29:08;;;;;;;6.20;4.33;;;10.20;99.90;;;;;;5035963;28;20481;-69
2022/09/23 03:31:35;;;;;;;4.13;3.77;;;10.20;99.90;;;;;;5038694;28;20462;-70
2022/09/23 03:34:04;;;;;;;3.97;3.67;;;10.20;99.90;;;;;;5052189;28;20478;-71
2022/09/23 03:36:50;;;;;;;4.63;3.90;;;10.20;99.90;;;;;;5038506;28;20458;-70
2022/09/23 03:39:45;;;;;;;3.73;3.33;;;10.20;99.90;;;;;;5036333;28;20467;-70
2022/09/23 03:42:20;;;;;;;5.40;3.63;;;10.20;99.90;;;;;;5033727;28;20549;-71
2022/09/23 03:44:47;;;;;;;4.47;3.57;;;10.20;99.90;;;;;;5040694;28;20543;-71
2022/09/23 03:47:15;;;;;;;4.43;4.13;;;10.10;99.90;;;;;;5037385;28;20463;-71
2022/09/23 03:49:47;;;;;;;4.53;4.00;;;10.00;99.90;;;;;;5047719;28;20458;-69
2022/09/23 03:52:17;;;;;;;7.43;4.20;;;10.00;99.90;;;;;;5036078;28;20966;-71
2022/09/23 03:54:43;;;;;;;4.80;4.30;;;10.10;99.90;;;;;;5028025;28;20474;-70
2022/09/23 03:57:10;;;;;;;4.43;4.03;;;10.10;99.90;;;;;;5039813;28;20955;-71
2022/09/23 03:59:36;;;;;;;4.43;3.87;;;10.10;99.90;;;;;;5060257;28;20212;-71
2022/09/23 04:02:02;;;;;;;4.87;4.23;;;10.00;99.90;;;;;;5038570;28;20874;-70
2022/09/23 04:04:28;;;;;;;5.00;4.60;;;10.00;99.90;;;;;;5040696;28;20515;-69
2022/09/23 04:06:55;;;;;;;4.43;3.60;;;10.10;99.90;;;;;;5039464;28;20470;-71
2022/09/23 04:09:21;;;;;;;3.90;3.50;;;10.00;99.90;;;;;;5040683;28;20467;-69
2022/09/23 04:11:49;;;;;;;4.33;3.93;;;10.00;99.90;;;;;;5024347;28;20969;-71
2022/09/23 04:14:14;;;;;;;6.10;5.50;;;10.00;99.90;;;;;;5045386;28;20993;-69
2022/09/23 04:16:40;;;;;;;12.10;4.97;;;10.00;99.90;;;;;;5039291;28;20555;-70
2022/09/23 04:19:06;;;;;;;4.60;4.07;;;10.00;99.90;;;;;;5041720;28;20216;-69
2022/09/23 04:21:31;;;;;;;4.50;3.47;;;9.90;99.90;;;;;;5041074;28;20219;-70
2022/09/23 04:23:57;;;;;;;5.80;4.40;;;10.00;99.90;;;;;;5041184;28;20224;-70
2022/09/23 04:26:23;;;;;;;4.80;3.90;;;10.00;99.90;;;;;;5039716;28;20224;-71
2022/09/23 04:28:48;;;;;;;5.07;3.83;;;9.90;99.90;;;;;;5042815;28;20560;-71
2022/09/23 04:31:14;;;;;;;6.10;4.10;;;9.90;99.90;;;;;;5040357;28;20630;-71
2022/09/23 04:33:40;;;;;;;5.93;4.20;;;9.90;99.90;;;;;;5045541;28;20706;-71
2022/09/23 04:36:06;;;;;;;4.17;3.77;;;9.90;99.90;;;;;;5040014;28;20686;-70
2022/09/23 04:38:32;;;;;;;4.63;3.83;;;9.90;99.90;;;;;;5041145;28;20262;-70
2022/09/23 04:40:57;;;;;;;4.27;3.80;;;9.90;99.90;;;;;;5040032;28;20470;-70
2022/09/23 04:43:23;;;;;;;4.17;3.87;;;9.90;99.90;;;;;;5035543;28;20285;-69
2022/09/23 04:46:04;;;;;;;4.63;4.20;;;9.90;99.90;;;;;;5035592;28;20231;-69
2022/09/23 04:48:30;;;;;;;4.80;4.40;;;9.90;99.90;;;;;;5042027;28;20286;-71
2022/09/23 04:51:07;;;;;;;4.40;4.00;;;9.90;99.90;;;;;;5041532;28;20546;-69
2022/09/23 04:53:38;;;;;;;5.30;4.57;;;9.90;99.90;;;;;;5037960;28;20965;-71
2022/09/23 04:56:10;;;;;;;4.57;3.67;;;9.80;99.90;;;;;;5035527;28;20881;-71
2022/09/23 04:58:36;;;;;;;4.33;3.90;;;9.80;99.90;;;;;;5045260;28;20527;-71
2022/09/23 05:01:08;;;;;;;4.40;4.00;;;9.80;99.90;;;;;;5036830;28;20463;-70
2022/09/23 05:03:34;;;;;;;3.97;3.67;;;9.80;99.90;;;;;;5036118;28;20482;-71
2022/09/23 05:06:00;;;;;;;4.23;3.83;;;9.70;99.90;;;;;;5053651;28;20467;-70
2022/09/23 05:08:26;;;;;;;4.30;3.90;;;9.70;99.90;;;;;;5036042;28;20483;-71
2022/09/23 05:11:00;;;;;;;4.23;3.83;;;9.70;99.90;;;;;;5037728;28;21035;-71
2022/09/23 05:13:26;;;;;;;5.07;4.23;;;9.60;99.90;;;;;;5035711;28;20483;-70
2022/09/23 05:16:02;;;;;;;5.47;4.23;;;9.50;99.90;;;;;;5038270;28;20481;-70
2022/09/23 05:18:32;;;;;;;4.47;4.07;;;9.50;99.90;;;;;;5049848;28;20234;-70
2022/09/23 05:20:59;;;;;;;4.13;3.70;;;9.50;99.90;;;;;;5048416;28;20812;-71
2022/09/23 05:23:26;;;;;;;7.13;4.40;;;9.60;99.90;;;;;;5048658;28;20837;-70
2022/09/23 05:26:09;;;;;;;7.60;4.90;;;9.50;99.90;;;;;;5049343;28;20482;-71
2022/09/23 05:28:36;;;;;;;8.60;4.20;;;9.50;99.90;;;;;;5051621;28;20469;-70
2022/09/23 05:31:15;;;;;;;6.23;3.87;;;9.50;99.90;;;;;;5049960;28;20474;-70
2022/09/23 05:33:43;;;;;;;5.13;4.70;;;9.50;99.90;;;;;;5041488;28;20457;-70
2022/09/23 05:36:09;;;;;;;5.30;4.47;;;9.50;99.90;;;;;;5050538;28;20462;-71
2022/09/23 05:38:34;;;;;;;4.97;4.50;;;9.50;99.90;;;;;;5036266;28;20443;-71
2022/09/23 05:41:03;;;;;;;5.73;4.90;;;9.50;99.90;;;;;;5044434;28;20462;-71
2022/09/23 05:43:29;;;;;;;7.13;4.67;;;9.50;99.90;;;;;;5060347;28;20234;-70
2022/09/23 05:46:15;;;;;;;6.40;4.30;;;9.50;99.90;;;;;;5048653;28;20474;-71
2022/09/23 05:48:41;;;;;;;5.00;4.60;;;9.60;99.90;;;;;;5026380;28;20211;-71
2022/09/23 05:51:11;;;;;;;14.63;4.43;;;9.60;99.90;;;;;;5041907;28;20439;-70
2022/09/23 05:53:43;;;;;;;4.70;4.30;;;9.60;99.90;;;;;;5047471;28;20462;-71
2022/09/23 05:56:09;;;;;;;5.43;3.93;;;9.60;99.90;;;;;;5050353;28;20442;-69
2022/09/23 05:58:35;;;;;;;5.13;4.27;;;9.60;99.90;;;;;;5050833;28;20446;-71
2022/09/23 06:01:08;;;;;;;4.93;4.20;;;9.60;99.90;;;;;;5048501;28;20481;-70
2022/09/23 06:03:34;;;;;;;13.60;9.67;;;9.60;99.90;;;;;;5046421;28;20224;-71
2022/09/23 06:05:59;;;;;;;15.13;9.23;;;9.60;99.90;;;;;;5048391;28;20552;-70
2022/09/23 06:08:25;;;;;;;13.43;6.37;;;9.60;99.90;;;;;;5030604;28;20262;-70
2022/09/23 06:10:51;;;;;;;8.07;4.90;;;9.60;99.90;;;;;;5048650;28;20212;-69
2022/09/23 06:13:16;;;;;;;5.03;4.53;;;9.60;99.90;;;;;;5048078;28;20223;-70
2022/09/23 06:15:43;;;;;;;6.97;5.67;;;9.60;99.90;;;;;;5048302;28;20212;-70
2022/09/23 06:18:09;;;;;;;11.10;4.90;;;9.60;99.90;;;;;;5045760;28;20220;-69
2022/09/23 06:20:35;;;;;;;6.10;5.03;;;9.60;99.90;;;;;;5041935;28;20532;-71
2022/09/23 06:23:04;;;;;;;5.97;5.23;;;9.60;99.90;;;;;;5040636;28;20462;-71
2022/09/23 06:25:31;;;;;;;9.87;5.57;;;9.60;99.90;;;;;;5042121;28;20216;-70
2022/09/23 06:27:57;;;;;;;7.97;5.60;;;9.60;99.90;;;;;;5038372;28;21010;-70
2022/09/23 06:30:25;;;;;;;5.17;4.50;;;9.60;99.90;;;;;;5065314;28;20450;-69
2022/09/23 06:32:54;;;;;;;6.00;5.40;;;9.60;99.90;;;;;;5048262;28;20458;-69
2022/09/23 06:35:21;;;;;;;5.60;5.10;;;9.60;99.90;;;;;;5047623;28;20453;-69
2022/09/23 06:37:48;;;;;;;7.03;5.63;;;9.60;99.90;;;;;;5046106;28;20458;-70
2022/09/23 06:40:14;;;;;;;10.03;7.10;;;9.70;99.90;;;;;;5048789;28;20561;-70
2022/09/23 06:42:40;;;;;;;12.37;7.33;;;9.70;99.90;;;;;;5048075;28;21036;-69
2022/09/23 06:45:07;;;;;;;7.43;6.60;;;9.60;99.90;;;;;;5043662;28;20455;-70
2022/09/23 06:47:32;;;;;;;6.37;5.73;;;9.60;99.90;;;;;;5046245;28;20490;-70
2022/09/23 06:49:58;;;;;;;11.63;6.70;;;9.70;99.90;;;;;;5043006;28;20498;-70
2022/09/23 06:52:25;;;;;;;11.87;7.67;;;9.70;99.90;;;;;;5038041;28;20665;-70
2022/09/23 06:54:51;;;;;;;10.93;7.20;;;9.70;99.90;;;;;;5044896;28;20226;-69
2022/09/23 06:57:16;;;;;;;8.30;6.50;;;9.70;99.90;;;;;;5037133;28;20462;-70
2022/09/23 06:59:42;;;;;;;11.10;5.63;;;9.70;99.90;;;;;;5037914;28;20239;-71
2022/09/23 07:02:11;;;;;;;6.70;5.17;;;9.70;99.90;;;;;;5034165;28;20242;-70
2022/09/23 07:04:36;;;;;;;6.43;5.40;;;9.70;99.90;;;;;;5037881;28;20306;-69
2022/09/23 07:07:02;;;;;;;6.60;4.93;;;9.70;99.90;;;;;;5049166;28;20557;-71
2022/09/23 07:09:28;;;;;;;7.07;5.57;;;9.80;99.90;;;;;;5039404;28;20290;-71
2022/09/23 07:11:54;;;;;;;6.80;5.07;;;9.80;99.90;;;;;;5039120;28;20462;-70
2022/09/23 07:14:19;;;;;;;4.93;4.53;;;9.80;99.90;;;;;;5033423;28;20371;-70
2022/09/23 07:16:48;;;;;;;5.77;4.43;;;9.80;99.90;;;;;;5041671;28;20228;-70
2022/09/23 07:19:13;;;;;;;5.30;4.80;;;9.80;99.90;;;;;;5039651;28;20322;-71
2022/09/23 07:21:40;;;;;;;5.77;5.27;;;9.90;99.90;;;;;;5060016;28;20526;-69
2022/09/23 07:24:06;;;;;;;15.63;5.13;;;9.90;99.90;;;;;;5043430;28;20224;-69
2022/09/23 07:26:32;;;;;;;5.30;4.80;;;9.90;99.90;;;;;;5050725;28;20482;-71
2022/09/23 07:29:06;;;;;;;5.40;4.90;;;9.90;99.90;;;;;;5045895;28;20460;-71
2022/09/23 07:31:34;;;;;;;5.00;4.37;;;9.90;99.90;;;;;;5046718;28;20472;-70
2022/09/23 07:34:00;;;;;;;6.93;4.70;;;9.90;99.90;;;;;;5057923;28;20473;-71
2022/09/23 07:36:26;;;;;;;5.67;4.93;;;10.00;99.90;;;;;;5038705;28;20459;-70
2022/09/23 07:39:02;;;;;;;5.33;4.63;;;10.00;99.90;;;;;;5041059;28;20450;-71
2022/09/23 07:41:29;;;;;;;4.97;4.50;;;10.00;99.90;;;;;;5041503;28;20465;-71
2022/09/23 07:43:57;;;;;;;7.63;4.40;;;10.00;99.90;;;;;;5037023;28;20447;-72
2022/09/23 07:46:26;;;;;;;5.27;4.77;;;10.10;99.90;;;;;;5044092;28;20881;-69
2022/09/23 07:48:52;;;;;;;5.40;3.93;;;10.10;99.90;;;;;;5030018;28;20526;-70
2022/09/23 07:51:21;;;;;;;6.93;3.97;;;10.20;99.90;;;;;;5045075;28;20457;-71
2022/09/23 07:53:48;;;;;;;5.37;4.20;;;10.30;99.90;;;;;;5042583;28;20459;-69
2022/09/23 07:56:14;;;;;;;4.63;4.10;;;10.30;99.90;;;;;;5035779;28;20494;-71
2022/09/23 07:58:40;;;;;;;4.93;4.40;;;10.40;99.90;;;;;;5049154;28;20474;-69
2022/09/23 08:01:09;;;;;;;3.67;3.37;;;10.40;99.90;;;;;;5040114;28;20498;-69
2022/09/23 08:03:35;;;;;;;5.20;4.60;;;10.50;99.90;;;;;;5042972;28;20752;-70
2022/09/23 08:06:11;;;;;;;4.93;4.20;;;10.60;99.90;;;;;;5029411;28;20513;-71
2022/09/23 08:08:42;;;;;;;6.80;4.77;;;10.70;99.90;;;;;;5047140;28;20456;-70
2022/09/23 08:11:09;;;;;;;6.90;4.60;;;10.80;99.90;;;;;;5046025;28;20450;-69
2022/09/23 08:13:36;;;;;;;5.67;3.90;;;10.90;99.90;;;;;;5041666;28;20457;-69
2022/09/23 08:16:01;;;;;;;5.00;3.90;;;11.00;99.90;;;;;;5034587;28;20463;-69
2022/09/23 08:18:27;;;;;;;5.30;4.50;;;11.00;99.90;;;;;;5041144;28;20471;-71
2022/09/23 08:20:53;;;;;;;4.87;3.70;;;11.10;99.90;;;;;;5042569;28;20220;-70
2022/09/23 08:23:19;;;;;;;5.20;4.13;;;11.20;99.90;;;;;;5037710;28;20454;-71
2022/09/23 08:25:46;;;;;;;4.20;3.80;;;11.40;99.90;;;;;;5036925;28;20215;-70
2022/09/23 08:28:15;;;;;;;5.90;4.40;;;11.50;99.90;;;;;;5051126;28;20813;-71
2022/09/23 08:30:47;;;;;;;7.00;4.90;;;11.70;99.90;;;;;;5044850;28;20459;-70
2022/09/23 08:33:13;;;;;;;5.27;4.27;;;11.90;99.90;;;;;;5035195;28;20453;-71
2022/09/23 08:35:39;;;;;;;4.93;4.53;;;11.90;99.90;;;;;;5039644;28;20481;-71
2022/09/23 08:38:06;;;;;;;4.90;4.40;;;11.90;99.90;;;;;;5043427;28;20462;-72
2022/09/23 08:40:38;;;;;;;5.27;4.77;;;12.00;99.90;;;;;;5045500;28;20473;-70
2022/09/23 08:43:15;;;;;;;5.00;4.43;;;12.00;99.90;;;;;;5038126;28;20817;-71
2022/09/23 08:45:43;;;;;;;7.53;4.60;;;12.10;99.90;;;;;;5045225;28;20866;-71
2022/09/23 08:48:14;;;;;;;5.73;5.07;;;12.10;99.90;;;;;;5035616;28;20501;-70
2022/09/23 08:50:44;;;;;;;4.73;4.10;;;12.20;99.90;;;;;;5035510;28;20466;-71
2022/09/23 08:53:22;;;;;;;4.53;4.13;;;12.30;99.90;;;;;;5038942;28;20473;-69
2022/09/23 08:55:51;;;;;;;5.60;4.63;;;12.30;99.90;;;;;;5035305;28;20970;-70
2022/09/23 08:58:20;;;;;;;3.70;3.40;;;12.40;99.90;;;;;;5037451;28;20858;-71
2022/09/23 09:01:02;;;;;;;4.90;3.70;;;12.50;99.90;;;;;;5041000;28;20461;-70
2022/09/23 09:03:50;;;;;;;4.10;3.70;;;12.60;99.90;;;;;;5030669;28;20491;-71
2022/09/23 09:06:32;;;;;;;5.40;3.53;;;12.70;99.90;;;;;;5039733;28;20557;-71
2022/09/23 09:09:03;;;;;;;5.77;3.43;;;12.80;99.90;;;;;;5040884;28;20504;-70
2022/09/23 09:11:44;;;;;;;3.90;3.60;;;12.80;99.90;;;;;;5031284;28;20825;-70
2022/09/23 09:14:38;;;;;;;4.47;3.67;;;12.90;99.90;;;;;;5037790;28;20466;-71
2022/09/23 09:17:09;;;;;;;4.33;3.90;;;13.10;99.90;;;;;;5041418;28;20478;-71
2022/09/23 09:19:54;;;;;;;3.67;3.23;;;13.20;99.90;;;;;;5056119;28;20483;-69
2022/09/23 09:22:44;;;;;;;4.80;4.33;;;13.20;99.90;;;;;;5040733;28;20541;-70
2022/09/23 09:25:21;;;;;;;4.77;4.03;;;13.30;99.90;;;;;;5040977;28;20500;-71
2022/09/23 09:27:47;;;;;;;5.83;4.63;;;13.40;99.90;;;;;;5040583;28;20466;-70
2022/09/23 09:30:14;;;;;;;4.40;4.00;;;13.50;99.90;;;;;;5038874;28;20448;-71
2022/09/23 09:32:58;;;;;;;4.17;3.87;;;13.50;99.90;;;;;;5016072;28;20574;-71
2022/09/23 09:35:33;;;;;;;10.50;4.60;;;13.60;99.90;;;;;;5037182;28;20458;-72
2022/09/23 09:38:00;;;;;;;6.60;5.10;;;13.60;99.90;;;;;;5042823;28;20459;-70
2022/09/23 09:40:26;;;;;;;5.00;4.50;;;13.70;99.90;;;;;;5037951;28;20486;-70
2022/09/23 09:42:51;;;;;;;7.40;4.63;;;13.80;99.90;;;;;;5032825;28;20971;-69
2022/09/23 09:45:28;;;;;;;4.37;3.97;;;13.90;99.90;;;;;;5032349;28;20278;-70
2022/09/23 09:48:16;;;;;;;5.13;4.60;;;13.90;99.90;;;;;;5028545;28;20232;-71
2022/09/23 09:50:50;;;;;;;4.13;3.73;;;14.10;99.90;;;;;;5039478;28;20481;-71
2022/09/23 09:53:30;;;;;;;4.03;3.63;;;14.20;99.90;;;;;;5040271;28;20950;-71
2022/09/23 09:56:02;;;;;;;4.33;3.93;;;14.30;99.90;;;;;;5037306;28;20467;-69
2022/09/23 09:58:40;;;;;;;4.53;4.13;;;14.50;99.90;;;;;;5053037;28;20455;-71
2022/09/23 10:01:07;;;;;;;4.77;4.13;;;14.70;99.90;;;;;;5032095;28;20486;-72
2022/09/23 10:03:38;;;;;;;5.83;3.97;;;15.10;99.90;;;;;;5035483;28;21079;-71
2022/09/23 10:06:36;;;;;;;5.57;3.70;;;15.20;99.90;;;;;;5036787;28;20478;-71
2022/09/23 10:09:11;;;;;;;3.23;2.93;;;15.40;99.90;;;;;;5023943;28;20529;-70
2022/09/23 10:11:38;;;;;;;3.93;3.50;;;15.50;99.90;;;;;;5040014;28;20473;-70
2022/09/23 10:14:16;;;;;;;4.10;3.73;;;15.50;99.90;;;;;;5037610;28;20501;-71
2022/09/23 10:16:42;;;;;;;4.20;3.70;;;15.60;99.90;;;;;;5042417;28;20501;-70
2022/09/23 10:19:25;;;;;;;4.13;3.73;;;15.70;99.90;;;;;;5035117;28;20946;-70
2022/09/23 10:21:57;;;;;;;4.57;4.17;;;15.70;99.90;;;;;;5038463;28;20474;-71
2022/09/23 10:24:28;;;;;;;5.63;3.73;;;15.70;99.90;;;;;;5039600;28;20513;-71
2022/09/23 10:27:02;;;;;;;4.67;3.73;;;15.70;99.90;;;;;;5045663;28;20517;-69
2022/09/23 10:29:31;;;;;;;3.43;3.13;;;15.60;99.90;;;;;;5037108;28;20520;-71
2022/09/23 10:32:28;;;;;;;3.20;2.90;;;15.80;99.90;;;;;;5041139;28;20468;-71
2022/09/23 10:35:03;;;;;;;3.27;2.97;;;16.00;99.90;;;;;;5047254;28;20458;-70
2022/09/23 10:37:29;;;;;;;4.43;3.30;;;16.20;99.90;;;;;;5035356;28;20458;-71
2022/09/23 10:48:52;;;;;;;9.57;3.10;;;16.60;99.90;;;;;;5041079;28;20488;-71
2022/09/23 10:51:47;;;;;;;3.93;3.57;;;16.70;99.90;;;;;;5024467;28;20462;-71
2022/09/23 10:54:24;;;;;;;2.87;2.67;;;16.80;99.90;;;;;;5041286;28;20832;-72
2022/09/23 10:56:55;;;;;;;3.07;2.87;;;17.00;99.90;;;;;;5036429;28;20454;-71
2022/09/23 10:59:50;;;;;;;2.87;2.50;;;17.10;99.90;;;;;;5043486;28;20442;-71
2022/09/23 11:02:40;;;;;;;2.93;2.60;;;17.20;99.90;;;;;;5037768;28;20522;-71
2022/09/23 11:05:18;;;;;;;3.07;2.77;;;17.30;99.90;;;;;;5041011;28;20473;-70
2022/09/23 11:08:17;;;;;;;2.93;2.73;;;17.40;99.90;;;;;;5036406;28;20481;-72
2022/09/23 11:10:57;;;;;;;2.53;2.33;;;17.50;99.90;;;;;;5052687;28;20466;-71
2022/09/23 11:13:52;;;;;;;3.20;3.00;;;17.50;99.90;;;;;;5032450;28;20502;-71
2022/09/23 11:16:28;;;;;;;3.33;3.10;;;17.60;99.90;;;;;;5032952;28;20826;-72
2022/09/23 11:18:56;;;;;;;2.90;2.70;;;17.70;99.90;;;;;;5032729;28;20489;-71
2022/09/23 11:21:42;;;;;;;3.00;2.80;;;17.90;99.90;;;;;;5049877;28;20548;-70
2022/09/23 11:24:48;;;;;;;3.03;2.83;;;17.90;99.90;;;;;;5047507;28;20872;-72
2022/09/23 11:27:37;;;;;;;3.03;2.83;;;18.00;99.90;;;;;;5039515;28;20491;-71
2022/09/23 11:30:15;;;;;;;3.00;2.70;;;17.90;99.90;;;;;;5037529;28;20455;-72
2022/09/23 11:32:54;;;;;;;4.17;3.30;;;17.90;99.90;;;;;;5034845;28;20553;-71
2022/09/23 11:35:43;;;;;;;3.67;3.37;;;18.00;99.90;;;;;;5050285;28;20449;-70
2022/09/23 11:38:11;;;;;;;3.00;2.63;;;18.00;99.90;;;;;;5023512;28;20461;-71
2022/09/23 11:40:39;;;;;;;6.00;3.33;;;18.20;99.90;;;;;;5041754;28;20868;-70
2022/09/23 11:43:22;;;;;;;2.77;2.53;;;18.30;99.90;;;;;;5018211;28;20458;-71
2022/09/23 11:46:12;;;;;;;3.47;2.80;;;18.30;99.90;;;;;;5038013;28;20462;-72
2022/09/23 11:48:53;;;;;;;6.93;3.00;;;18.40;99.90;;;;;;5052670;28;20458;-71
2022/09/23 11:51:30;;;;;;;4.70;2.83;;;18.50;99.90;;;;;;5031857;28;20460;-71
2022/09/23 11:54:03;;;;;;;2.30;2.20;;;18.50;99.90;;;;;;5036392;28;20905;-70
2022/09/23 11:56:43;;;;;;;3.03;2.80;;;18.60;99.90;;;;;;5042393;28;20515;-71
2022/09/23 11:59:27;;;;;;;3.17;2.90;;;18.60;99.90;;;;;;5034665;28;20504;-71
2022/09/23 12:01:58;;;;;;;4.73;3.50;;;18.60;99.90;;;;;;5021522;28;20514;-72
2022/09/23 12:04:38;;;;;;;3.07;2.87;;;18.60;99.90;;;;;;5045125;28;20545;-72
2022/09/23 12:07:07;;;;;;;2.97;2.77;;;18.70;99.90;;;;;;5034956;28;20488;-71
2022/09/23 12:09:48;;;;;;;3.43;3.00;;;18.60;99.90;;;;;;5039108;28;20515;-72
2022/09/23 12:12:47;;;;;;;3.03;2.73;;;18.70;99.90;;;;;;5036333;28;20455;-72
2022/09/23 12:15:45;;;;;;;4.07;3.67;;;19.00;99.90;;;;;;5018410;28;20546;-72
2022/09/23 12:18:29;;;;;;;4.83;2.70;;;19.10;99.90;;;;;;5038177;28;20465;-71
2022/09/23 12:21:01;;;;;;;3.00;2.70;;;19.10;99.90;;;;;;5048564;28;20863;-71
2022/09/23 12:23:36;;;;;;;3.70;3.20;;;19.20;99.90;;;;;;5058421;28;20463;-72
2022/09/23 12:26:07;;;;;;;3.80;3.50;;;19.20;99.90;;;;;;5022769;28;20525;-72
2022/09/23 12:28:43;;;;;;;3.90;3.60;;;19.30;99.90;;;;;;5054411;28;20458;-72
2022/09/23 12:31:12;;;;;;;3.23;2.93;;;19.40;99.90;;;;;;5049041;28;20814;-71
2022/09/23 12:33:38;;;;;;;3.00;2.80;;;19.40;99.90;;;;;;5020246;28;20554;-70
2022/09/23 12:36:09;;;;;;;2.33;2.23;;;19.40;99.90;;;;;;5035483;28;20463;-71
2022/09/23 12:38:38;;;;;;;3.37;3.07;;;19.40;99.90;;;;;;5036960;28;20488;-72
2022/09/23 12:41:22;;;;;;;3.60;3.30;;;19.40;99.90;;;;;;5035011;28;20510;-70
2022/09/23 12:44:07;;;;;;;3.03;2.77;;;19.40;99.90;;;;;;5033237;28;20458;-72
2022/09/23 12:46:33;;;;;;;3.60;3.30;;;19.40;99.90;;;;;;5037235;28;20470;-71
2022/09/23 12:49:01;;;;;;;3.20;2.90;;;19.40;99.90;;;;;;5038926;28;20461;-69
2022/09/23 12:51:33;;;;;;;2.63;2.43;;;19.50;99.90;;;;;;5040021;28;20491;-71
2022/09/23 12:54:20;;;;;;;3.47;2.63;;;19.50;99.90;;;;;;5038564;28;20508;-71
2022/09/23 12:56:55;;;;;;;3.40;3.10;;;19.60;99.40;;;;;;5037258;28;20986;-72
2022/09/23 12:59:26;;;;;;;3.03;2.83;;;19.70;99.70;;;;;;5036276;28;20559;-72
2022/09/23 13:01:53;;;;;;;3.90;3.10;;;19.70;99.90;;;;;;5035165;28;20474;-70
2022/09/23 13:07:29;;;;;;;2.80;2.60;;;19.50;99.40;;;;;;5053759;28;20912;-71
2022/09/23 13:10:18;;;;;;;3.00;2.60;;;19.50;99.60;;;;;;5051499;28;20562;-72
2022/09/23 13:12:45;;;;;;;2.60;2.40;;;19.60;99.70;;;;;;5030804;28;20570;-72
2022/09/23 13:15:29;;;;;;;5.07;3.40;;;19.60;99.80;;;;;;5028762;28;20463;-71
2022/09/23 13:18:19;;;;;;;3.07;2.87;;;19.60;99.30;;;;;;5021037;28;20545;-72
2022/09/23 13:20:47;;;;;;;3.83;2.90;;;19.60;98.90;;;;;;5016622;28;20553;-70
2022/09/23 13:23:22;;;;;;;2.73;2.53;;;19.60;99.10;;;;;;5038264;28;20505;-72
2022/09/23 13:25:50;;;;;;;3.10;2.80;;;19.60;98.60;;;;;;5027344;28;21041;-71
2022/09/23 13:28:38;;;;;;;2.73;2.53;;;19.50;98.80;;;;;;5036555;28;20458;-70
2022/09/23 13:31:12;;;;;;;2.63;2.43;;;19.50;98.70;;;;;;5037925;28;20969;-71
2022/09/23 13:33:44;;;;;;;2.73;2.53;;;19.60;98.40;;;;;;5026288;28;20470;-72